sensor_id;sensor_type;location;lat;lon;timestamp;pressure;altitude;pressure_sealevel;temperature;humidity
26978;BME280;56314;48.088;11.642;2023-05-02T00:01:43;95479.56;;;9.26;100.00
26978;BME280;56314;48.088;11.642;2023-05-02T00:04:08;95476.09;;;9.26;100.00
26978;BME280;56314;48.088;11.642;2023-05-02T00:06:33;95475.97;;;9.27;100.00
26978;BME280;56314;48.088;11.642;2023-05-02T00:08:59;95479.34;;;9.29;100.00
26978;BME280;56314;48.088;11.642;2023-05-02T00:11:24;95473.88;;;9.32;100.00
26978;BME280;56314;48.088;11.642;2023-05-02T00:13:50;95474.84;;;9.31;100.00
26978;BME280;56314;48.088;11.642;2023-05-02T00:16:15;95467.91;;;9.30;100.00
26978;BME280;56314;48.088;11.642;2023-05-02T00:18:42;95469.59;;;9.31;100.00
26978;BME280;56314;48.088;11.642;2023-05-02T00:21:07;95467.31;;;9.27;100.00
26978;BME280;56314;48.088;11.642;2023-05-02T00:23:33;95474.09;;;9.29;100.00
26978;BME280;56314;48.088;11.642;2023-05-02T00:25:58;95476.22;;;9.24;100.00
26978;BME280;56314;48.088;11.642;2023-05-02T00:28:23;95466.47;;;9.26;100.00
26978;BME280;56314;48.088;11.642;2023-05-02T00:30:50;95475.97;;;9.27;100.00
26978;BME280;56314;48.088;11.642;2023-05-02T00:33:15;95468.13;;;9.27;100.00
26978;BME280;56314;48.088;11.642;2023-05-02T00:35:41;95473.59;;;9.24;100.00
26978;BME280;56314;48.088;11.642;2023-05-02T00:38:06;95471.47;;;9.29;100.00
26978;BME280;56314;48.088;11.642;2023-05-02T00:40:42;95471.31;;;9.19;100.00
26978;BME280;56314;48.088;11.642;2023-05-02T00:43:08;95467.00;;;9.18;100.00
26978;BME280;56314;48.088;11.642;2023-05-02T00:45:34;95467.22;;;9.15;100.00
26978;BME280;56314;48.088;11.642;2023-05-02T00:47:59;95457.56;;;9.16;100.00
26978;BME280;56314;48.088;11.642;2023-05-02T00:50:26;95460.09;;;9.04;100.00
26978;BME280;56314;48.088;11.642;2023-05-02T00:52:54;95466.94;;;9.07;100.00
26978;BME280;56314;48.088;11.642;2023-05-02T00:55:19;95465.25;;;9.06;100.00
26978;BME280;56314;48.088;11.642;2023-05-02T00:57:45;95466.53;;;9.00;100.00
26978;BME280;56314;48.088;11.642;2023-05-02T01:00:11;95463.91;;;9.00;100.00
26978;BME280;56314;48.088;11.642;2023-05-02T01:10:45;95471.03;;;8.85;100.00
26978;BME280;56314;48.088;11.642;2023-05-02T01:13:35;95476.16;;;8.87;100.00
26978;BME280;56314;48.088;11.642;2023-05-02T01:16:03;95478.16;;;8.83;100.00
26978;BME280;56314;48.088;11.642;2023-05-02T01:18:32;95476.38;;;8.84;100.00
26978;BME280;56314;48.088;11.642;2023-05-02T01:21:05;95472.41;;;8.78;100.00
26978;BME280;56314;48.088;11.642;2023-05-02T01:29:06;95474.06;;;8.66;100.00
26978;BME280;56314;48.088;11.642;2023-05-02T01:31:39;95483.59;;;8.67;100.00
26978;BME280;56314;48.088;11.642;2023-05-02T01:34:08;95482.97;;;8.63;100.00
26978;BME280;56314;48.088;11.642;2023-05-02T01:36:40;95485.09;;;8.58;100.00
26978;BME280;56314;48.088;11.642;2023-05-02T01:39:09;95482.03;;;8.52;100.00
26978;BME280;56314;48.088;11.642;2023-05-02T01:41:36;95483.72;;;8.53;100.00
26978;BME280;56314;48.088;11.642;2023-05-02T01:44:04;95489.16;;;8.50;100.00
26978;BME280;56314;48.088;11.642;2023-05-02T01:46:37;95486.53;;;8.50;100.00
26978;BME280;56314;48.088;11.642;2023-05-02T01:49:05;95490.25;;;8.45;100.00
26978;BME280;56314;48.088;11.642;2023-05-02T01:51:33;95485.34;;;8.41;100.00
26978;BME280;56314;48.088;11.642;2023-05-02T01:54:01;95485.53;;;8.38;100.00
26978;BME280;56314;48.088;11.642;2023-05-02T01:56:30;95494.56;;;8.34;100.00
26978;BME280;56314;48.088;11.642;2023-05-02T01:58:58;95493.50;;;8.36;100.00
26978;BME280;56314;48.088;11.642;2023-05-02T02:01:25;95499.66;;;8.35;100.00
26978;BME280;56314;48.088;11.642;2023-05-02T02:03:56;95498.84;;;8.35;100.00
26978;BME280;56314;48.088;11.642;2023-05-02T02:06:23;95503.34;;;8.32;100.00
26978;BME280;56314;48.088;11.642;2023-05-02T02:08:49;95506.78;;;8.33;100.00
26978;BME280;56314;48.088;11.642;2023-05-02T02:11:20;95499.66;;;8.35;100.00
26978;BME280;56314;48.088;11.642;2023-05-02T02:13:54;95501.53;;;8.33;100.00
26978;BME280;56314;48.088;11.642;2023-05-02T02:16:24;95510.88;;;8.37;100.00
26978;BME280;56314;48.088;11.642;2023-05-02T02:18:55;95503.03;;;8.37;100.00
26978;BME280;56314;48.088;11.642;2023-05-02T02:21:22;95505.34;;;8.42;100.00
26978;BME280;56314;48.088;11.642;2023-05-02T02:23:52;95508.88;;;8.41;100.00
26978;BME280;56314;48.088;11.642;2023-05-02T02:26:20;95503.91;;;8.51;100.00
26978;BME280;56314;48.088;11.642;2023-05-02T02:28:47;95506.53;;;8.51;100.00
26978;BME280;56314;48.088;11.642;2023-05-02T02:31:12;95511.97;;;8.47;100.00
26978;BME280;56314;48.088;11.642;2023-05-02T02:33:38;95505.78;;;8.49;100.00
26978;BME280;56314;48.088;11.642;2023-05-02T02:36:33;95509.97;;;8.51;100.00
26978;BME280;56314;48.088;11.642;2023-05-02T02:39:11;95512.59;;;8.51;100.00
26978;BME280;56314;48.088;11.642;2023-05-02T02:42:06;95508.84;;;8.55;100.00
26978;BME280;56314;48.088;11.642;2023-05-02T02:44:42;95515.00;;;8.54;100.00
26978;BME280;56314;48.088;11.642;2023-05-02T02:47:22;95517.75;;;8.53;100.00
26978;BME280;56314;48.088;11.642;2023-05-02T02:50:16;95517.44;;;8.57;100.00
26978;BME280;56314;48.088;11.642;2023-05-02T02:53:01;95524.53;;;8.55;100.00
26978;BME280;56314;48.088;11.642;2023-05-02T02:55:37;95520.44;;;8.51;100.00
26978;BME280;56314;48.088;11.642;2023-05-02T03:00:41;95524.38;;;8.44;100.00
26978;BME280;56314;48.088;11.642;2023-05-02T03:03:08;95529.09;;;8.39;100.00
26978;BME280;56314;48.088;11.642;2023-05-02T03:05:34;95529.09;;;8.39;100.00
26978;BME280;56314;48.088;11.642;2023-05-02T03:08:00;95529.00;;;8.40;100.00
26978;BME280;56314;48.088;11.642;2023-05-02T03:10:25;95534.13;;;8.42;100.00
26978;BME280;56314;48.088;11.642;2023-05-02T03:12:50;95538.91;;;8.35;100.00
26978;BME280;56314;48.088;11.642;2023-05-02T03:15:45;95538.09;;;8.35;100.00
26978;BME280;56314;48.088;11.642;2023-05-02T03:18:24;95535.91;;;8.41;100.00
26978;BME280;56314;48.088;11.642;2023-05-02T03:20:49;95535.06;;;8.41;100.00
26978;BME280;56314;48.088;11.642;2023-05-02T03:23:14;95534.44;;;8.37;100.00
26978;BME280;56314;48.088;11.642;2023-05-02T03:25:39;95539.47;;;8.40;100.00
26978;BME280;56314;48.088;11.642;2023-05-02T03:28:05;95537.78;;;8.39;100.00
26978;BME280;56314;48.088;11.642;2023-05-02T03:30:30;95539.47;;;8.40;100.00
26978;BME280;56314;48.088;11.642;2023-05-02T03:32:55;95539.25;;;8.43;100.00
26978;BME280;56314;48.088;11.642;2023-05-02T03:35:21;95540.19;;;8.42;100.00
26978;BME280;56314;48.088;11.642;2023-05-02T03:37:46;95539.47;;;8.40;100.00
26978;BME280;56314;48.088;11.642;2023-05-02T03:40:11;95539.34;;;8.42;100.00
26978;BME280;56314;48.088;11.642;2023-05-02T03:42:37;95536.63;;;8.43;100.00
26978;BME280;56314;48.088;11.642;2023-05-02T03:45:06;95549.72;;;8.43;100.00
26978;BME280;56314;48.088;11.642;2023-05-02T03:47:31;95547.94;;;8.44;100.00
26978;BME280;56314;48.088;11.642;2023-05-02T03:49:57;95556.72;;;8.43;100.00
26978;BME280;56314;48.088;11.642;2023-05-02T03:52:23;95550.66;;;8.42;100.00
26978;BME280;56314;48.088;11.642;2023-05-02T03:54:48;95554.22;;;8.41;100.00
26978;BME280;56314;48.088;11.642;2023-05-02T03:57:14;95555.56;;;8.34;100.00
26978;BME280;56314;48.088;11.642;2023-05-02T03:59:39;95560.97;;;8.31;100.00
26978;BME280;56314;48.088;11.642;2023-05-02T04:02:07;95561.09;;;8.29;100.00
26978;BME280;56314;48.088;11.642;2023-05-02T04:04:33;95563.72;;;8.29;100.00
26978;BME280;56314;48.088;11.642;2023-05-02T04:06:58;95570.72;;;8.29;100.00
26978;BME280;56314;48.088;11.642;2023-05-02T04:09:24;95572.38;;;8.30;100.00
26978;BME280;56314;48.088;11.642;2023-05-02T04:11:50;95571.75;;;8.26;100.00
26978;BME280;56314;48.088;11.642;2023-05-02T04:14:16;95574.78;;;8.20;100.00
26978;BME280;56314;48.088;11.642;2023-05-02T04:16:41;95585.44;;;8.17;100.00
26978;BME280;56314;48.088;11.642;2023-05-02T04:19:06;95579.16;;;8.20;100.00
26978;BME280;56314;48.088;11.642;2023-05-02T04:21:32;95580.84;;;8.21;100.00
26978;BME280;56314;48.088;11.642;2023-05-02T04:24:00;95588.91;;;8.18;100.00
26978;BME280;56314;48.088;11.642;2023-05-02T04:26:25;95588.78;;;8.19;100.00
26978;BME280;56314;48.088;11.642;2023-05-02T04:28:51;95587.66;;;8.23;100.00
26978;BME280;56314;48.088;11.642;2023-05-02T04:31:16;95593.84;;;8.22;100.00
26978;BME280;56314;48.088;11.642;2023-05-02T04:33:42;95597.28;;;8.23;100.00
26978;BME280;56314;48.088;11.642;2023-05-02T04:36:08;95588.09;;;8.30;100.00
26978;BME280;56314;48.088;11.642;2023-05-02T04:38:34;95596.78;;;8.30;100.00
26978;BME280;56314;48.088;11.642;2023-05-02T04:41:00;95598.16;;;8.36;100.00
26978;BME280;56314;48.088;11.642;2023-05-02T04:43:25;95606.00;;;8.36;100.00
26978;BME280;56314;48.088;11.642;2023-05-02T04:45:50;95599.53;;;8.42;100.00
26978;BME280;56314;48.088;11.642;2023-05-02T04:48:16;95603.25;;;8.52;100.00
26978;BME280;56314;48.088;11.642;2023-05-02T04:50:44;95609.69;;;8.61;100.00
26978;BME280;56314;48.088;11.642;2023-05-02T04:53:09;95611.34;;;8.62;100.00
26978;BME280;56314;48.088;11.642;2023-05-02T04:55:35;95614.50;;;8.67;100.00
26978;BME280;56314;48.088;11.642;2023-05-02T04:58:00;95620.72;;;8.79;100.00
26978;BME280;56314;48.088;11.642;2023-05-02T05:00:25;95617.78;;;8.84;100.00
26978;BME280;56314;48.088;11.642;2023-05-02T05:02:51;95624.50;;;8.88;100.00
26978;BME280;56314;48.088;11.642;2023-05-02T05:05:17;95638.84;;;8.95;100.00
26978;BME280;56314;48.088;11.642;2023-05-02T05:07:42;95633.41;;;8.98;100.00
26978;BME280;56314;48.088;11.642;2023-05-02T05:10:08;95636.97;;;9.10;100.00
26978;BME280;56314;48.088;11.642;2023-05-02T05:12:35;95644.00;;;9.09;100.00
26978;BME280;56314;48.088;11.642;2023-05-02T05:15:00;95642.22;;;9.10;100.00
26978;BME280;56314;48.088;11.642;2023-05-02T05:17:26;95643.69;;;9.14;100.00
26978;BME280;56314;48.088;11.642;2023-05-02T05:19:51;95649.56;;;9.18;100.00
26978;BME280;56314;48.088;11.642;2023-05-02T05:22:16;95654.41;;;9.24;100.00
26978;BME280;56314;48.088;11.642;2023-05-02T05:24:42;95659.63;;;9.37;100.00
26978;BME280;56314;48.088;11.642;2023-05-02T05:27:14;95659.75;;;9.35;100.00
26978;BME280;56314;48.088;11.642;2023-05-02T05:29:39;95656.81;;;9.40;100.00
26978;BME280;56314;48.088;11.642;2023-05-02T05:32:05;95661.44;;;9.36;100.00
26978;BME280;56314;48.088;11.642;2023-05-02T05:34:30;95665.81;;;9.36;100.00
26978;BME280;56314;48.088;11.642;2023-05-02T05:36:56;95669.91;;;9.40;100.00
26978;BME280;56314;48.088;11.642;2023-05-02T05:39:21;95674.72;;;9.46;100.00
26978;BME280;56314;48.088;11.642;2023-05-02T05:41:47;95674.84;;;9.45;100.00
26978;BME280;56314;48.088;11.642;2023-05-02T05:44:13;95678.22;;;9.47;100.00
26978;BME280;56314;48.088;11.642;2023-05-02T05:46:39;95683.25;;;9.50;100.00
26978;BME280;56314;48.088;11.642;2023-05-02T05:49:04;95685.13;;;9.48;100.00
26978;BME280;56314;48.088;11.642;2023-05-02T05:51:29;95682.06;;;9.54;100.00
26978;BME280;56314;48.088;11.642;2023-05-02T05:53:55;95686.81;;;9.49;100.00
26978;BME280;56314;48.088;11.642;2023-05-02T05:56:21;95693.00;;;9.48;100.00
26978;BME280;56314;48.088;11.642;2023-05-02T05:58:47;95695.09;;;9.55;100.00
26978;BME280;56314;48.088;11.642;2023-05-02T06:01:12;95697.72;;;9.55;100.00
26978;BME280;56314;48.088;11.642;2023-05-02T06:03:38;95702.66;;;9.60;100.00
26978;BME280;56314;48.088;11.642;2023-05-02T06:06:03;95698.03;;;9.64;100.00
26978;BME280;56314;48.088;11.642;2023-05-02T06:08:29;95697.50;;;9.72;100.00
26978;BME280;56314;48.088;11.642;2023-05-02T06:10:54;95699.69;;;9.78;100.00
26978;BME280;56314;48.088;11.642;2023-05-02T06:13:19;95704.59;;;9.82;100.00
26978;BME280;56314;48.088;11.642;2023-05-02T06:15:45;95701.47;;;9.90;100.00
26978;BME280;56314;48.088;11.642;2023-05-02T06:18:10;95706.38;;;9.95;100.00
26978;BME280;56314;48.088;11.642;2023-05-02T06:20:35;95707.84;;;9.99;100.00
26978;BME280;56314;48.088;11.642;2023-05-02T06:23:01;95710.88;;;10.06;100.00
26978;BME280;56314;48.088;11.642;2023-05-02T06:25:26;95711.50;;;10.22;100.00
26978;BME280;56314;48.088;11.642;2023-05-02T06:27:52;95709.91;;;10.32;100.00
26978;BME280;56314;48.088;11.642;2023-05-02T06:30:17;95710.00;;;10.44;99.68
26978;BME280;56314;48.088;11.642;2023-05-02T06:32:42;95704.47;;;10.60;98.91
26978;BME280;56314;48.088;11.642;2023-05-02T06:35:09;95710.50;;;10.73;99.03
26978;BME280;56314;48.088;11.642;2023-05-02T06:37:35;95710.22;;;10.89;97.80
26978;BME280;56314;48.088;11.642;2023-05-02T06:40:01;95701.09;;;11.06;96.13
26978;BME280;56314;48.088;11.642;2023-05-02T06:42:26;95710.81;;;11.17;95.72
26978;BME280;56314;48.088;11.642;2023-05-02T06:44:52;95709.28;;;11.26;93.84
26978;BME280;56314;48.088;11.642;2023-05-02T06:47:18;95714.31;;;11.29;93.84
26978;BME280;56314;48.088;11.642;2023-05-02T06:49:43;95713.63;;;11.38;93.96
26978;BME280;56314;48.088;11.642;2023-05-02T06:52:08;95721.53;;;11.50;93.23
26978;BME280;56314;48.088;11.642;2023-05-02T06:54:34;95725.59;;;11.54;93.61
26978;BME280;56314;48.088;11.642;2023-05-02T06:56:59;95721.44;;;11.63;92.62
26978;BME280;56314;48.088;11.642;2023-05-02T06:59:26;95727.91;;;11.70;93.02
26978;BME280;56314;48.088;11.642;2023-05-02T07:01:51;95730.31;;;11.73;91.90
26978;BME280;56314;48.088;11.642;2023-05-02T07:04:17;95734.03;;;11.70;89.18
26978;BME280;56314;48.088;11.642;2023-05-02T07:06:42;95743.47;;;11.84;89.72
26978;BME280;56314;48.088;11.642;2023-05-02T07:09:07;95735.09;;;11.79;88.32
26978;BME280;56314;48.088;11.642;2023-05-02T07:11:32;95743.25;;;11.88;90.95
26978;BME280;56314;48.088;11.642;2023-05-02T07:13:58;95741.09;;;11.93;89.56
26978;BME280;56314;48.088;11.642;2023-05-02T07:16:23;95731.19;;;11.96;88.45
26978;BME280;56314;48.088;11.642;2023-05-02T07:18:49;95733.72;;;12.09;87.76
26978;BME280;56314;48.088;11.642;2023-05-02T07:21:14;95725.09;;;12.19;87.05
26978;BME280;56314;48.088;11.642;2023-05-02T07:23:40;95733.94;;;12.40;88.08
26978;BME280;56314;48.088;11.642;2023-05-02T07:26:05;95731.75;;;12.57;85.73
26978;BME280;56314;48.088;11.642;2023-05-02T07:28:31;95729.63;;;12.62;85.56
26978;BME280;56314;48.088;11.642;2023-05-02T07:30:56;95725.34;;;12.82;84.37
26978;BME280;56314;48.088;11.642;2023-05-02T07:33:22;95725.16;;;12.62;83.43
26978;BME280;56314;48.088;11.642;2023-05-02T07:35:48;95727.66;;;12.64;85.14
26978;BME280;56314;48.088;11.642;2023-05-02T07:38:13;95728.28;;;12.68;85.19
26978;BME280;56314;48.088;11.642;2023-05-02T07:40:39;95736.41;;;12.65;84.46
26978;BME280;56314;48.088;11.642;2023-05-02T07:43:04;95732.34;;;12.60;87.20
26978;BME280;56314;48.088;11.642;2023-05-02T07:45:30;95734.41;;;12.45;86.53
26978;BME280;56314;48.088;11.642;2023-05-02T07:47:55;95740.28;;;12.38;86.39
26978;BME280;56314;48.088;11.642;2023-05-02T07:50:21;95740.88;;;12.30;87.67
26978;BME280;56314;48.088;11.642;2023-05-02T07:52:47;95742.09;;;12.26;88.00
26978;BME280;56314;48.088;11.642;2023-05-02T07:55:12;95746.63;;;12.35;89.64
26978;BME280;56314;48.088;11.642;2023-05-02T07:57:39;95746.50;;;12.37;87.68
26978;BME280;56314;48.088;11.642;2023-05-02T08:00:05;95752.84;;;12.45;87.46
26978;BME280;56314;48.088;11.642;2023-05-02T08:02:34;95749.47;;;12.55;86.59
26978;BME280;56314;48.088;11.642;2023-05-02T08:05:01;95743.59;;;12.62;84.33
26978;BME280;56314;48.088;11.642;2023-05-02T08:07:26;95748.41;;;12.57;83.52
26978;BME280;56314;48.088;11.642;2023-05-02T08:09:52;95752.94;;;12.67;83.87
26978;BME280;56314;48.088;11.642;2023-05-02T08:12:17;95760.72;;;12.68;84.91
26978;BME280;56314;48.088;11.642;2023-05-02T08:14:42;95753.38;;;12.83;85.61
26978;BME280;56314;48.088;11.642;2023-05-02T08:17:08;95749.66;;;12.97;82.74
26978;BME280;56314;48.088;11.642;2023-05-02T08:19:34;95759.63;;;13.15;82.10
26978;BME280;56314;48.088;11.642;2023-05-02T08:21:59;95763.03;;;13.38;80.98
26978;BME280;56314;48.088;11.642;2023-05-02T08:24:24;95751.94;;;13.77;80.80
26978;BME280;56314;48.088;11.642;2023-05-02T08:26:50;95755.84;;;13.82;78.58
26978;BME280;56314;48.088;11.642;2023-05-02T08:29:15;95750.84;;;13.79;79.08
26978;BME280;56314;48.088;11.642;2023-05-02T08:31:41;95753.41;;;13.91;79.11
26978;BME280;56314;48.088;11.642;2023-05-02T08:34:06;95752.97;;;14.16;77.32
26978;BME280;56314;48.088;11.642;2023-05-02T08:36:32;95752.81;;;14.08;77.25
26978;BME280;56314;48.088;11.642;2023-05-02T08:38:57;95752.38;;;14.34;74.92
26978;BME280;56314;48.088;11.642;2023-05-02T08:41:23;95754.59;;;14.70;73.49
26978;BME280;56314;48.088;11.642;2023-05-02T08:43:48;95757.53;;;14.76;73.13
26978;BME280;56314;48.088;11.642;2023-05-02T08:46:16;95762.44;;;14.91;71.71
26978;BME280;56314;48.088;11.642;2023-05-02T08:48:43;95764.28;;;15.30;71.65
26978;BME280;56314;48.088;11.642;2023-05-02T08:51:10;95763.03;;;15.24;69.70
26978;BME280;56314;48.088;11.642;2023-05-02T08:53:37;95766.66;;;15.13;66.01
26978;BME280;56314;48.088;11.642;2023-05-02T08:56:03;95767.38;;;15.45;69.53
26978;BME280;56314;48.088;11.642;2023-05-02T08:58:29;95770.09;;;16.02;67.41
26978;BME280;56314;48.088;11.642;2023-05-02T09:01:00;95765.50;;;16.42;65.89
26978;BME280;56314;48.088;11.642;2023-05-02T09:03:29;95767.59;;;16.76;63.42
26978;BME280;56314;48.088;11.642;2023-05-02T09:08:27;95767.84;;;17.29;61.46
26978;BME280;56314;48.088;11.642;2023-05-02T09:10:52;95765.50;;;17.44;59.78
26978;BME280;56314;48.088;11.642;2023-05-02T09:13:38;95774.59;;;17.41;59.60
26978;BME280;56314;48.088;11.642;2023-05-02T09:16:06;95771.16;;;17.13;60.95
26978;BME280;56314;48.088;11.642;2023-05-02T09:18:33;95779.34;;;16.91;62.04
26978;BME280;56314;48.088;11.642;2023-05-02T09:21:02;95778.81;;;16.88;62.10
26978;BME280;56314;48.088;11.642;2023-05-02T09:26:24;95780.91;;;16.28;61.70
26978;BME280;56314;48.088;11.642;2023-05-02T09:29:01;95782.94;;;15.77;63.49
26978;BME280;56314;48.088;11.642;2023-05-02T09:31:32;95788.94;;;15.60;67.87
26978;BME280;56314;48.088;11.642;2023-05-02T09:34:09;95785.75;;;15.46;67.22
26978;BME280;56314;48.088;11.642;2023-05-02T09:36:45;95792.28;;;15.32;65.97
26978;BME280;56314;48.088;11.642;2023-05-02T09:39:13;95786.81;;;15.04;66.41
26978;BME280;56314;48.088;11.642;2023-05-02T09:41:40;95783.75;;;15.09;68.43
26978;BME280;56314;48.088;11.642;2023-05-02T09:44:09;95789.59;;;15.13;68.21
26978;BME280;56314;48.088;11.642;2023-05-02T09:46:39;95791.72;;;15.29;68.28
26978;BME280;56314;48.088;11.642;2023-05-02T09:49:06;95791.00;;;15.17;70.82
26978;BME280;56314;48.088;11.642;2023-05-02T09:51:32;95797.63;;;14.91;67.71
26978;BME280;56314;48.088;11.642;2023-05-02T09:53:58;95797.38;;;14.85;67.81
26978;BME280;56314;48.088;11.642;2023-05-02T09:56:23;95794.97;;;14.82;69.03
26978;BME280;56314;48.088;11.642;2023-05-02T09:58:48;95797.06;;;14.78;68.28
26978;BME280;56314;48.088;11.642;2023-05-02T10:01:15;95797.59;;;14.72;68.65
26978;BME280;56314;48.088;11.642;2023-05-02T10:03:45;95798.22;;;14.64;69.57
26978;BME280;56314;48.088;11.642;2023-05-02T10:06:11;95797.09;;;14.57;66.90
26978;BME280;56314;48.088;11.642;2023-05-02T10:08:37;95803.91;;;14.59;67.84
26978;BME280;56314;48.088;11.642;2023-05-02T10:11:06;95801.56;;;14.66;67.78
26978;BME280;56314;48.088;11.642;2023-05-02T10:13:32;95796.88;;;14.70;70.22
26978;BME280;56314;48.088;11.642;2023-05-02T10:16:02;95795.22;;;14.69;68.24
26978;BME280;56314;48.088;11.642;2023-05-02T10:18:32;95799.56;;;14.80;70.36
26978;BME280;56314;48.088;11.642;2023-05-02T10:20:59;95805.41;;;14.83;70.47
26978;BME280;56314;48.088;11.642;2023-05-02T10:23:29;95800.69;;;14.87;69.19
26978;BME280;56314;48.088;11.642;2023-05-02T10:25:57;95798.44;;;14.82;68.62
26978;BME280;56314;48.088;11.642;2023-05-02T10:28:23;95803.72;;;14.82;67.84
26978;BME280;56314;48.088;11.642;2023-05-02T10:30:49;95798.28;;;14.74;67.05
26978;BME280;56314;48.088;11.642;2023-05-02T10:33:16;95796.91;;;14.80;68.18
26978;BME280;56314;48.088;11.642;2023-05-02T10:35:44;95787.91;;;14.92;66.66
26978;BME280;56314;48.088;11.642;2023-05-02T10:38:18;95790.69;;;14.90;66.71
26978;BME280;56314;48.088;11.642;2023-05-02T10:40:58;95787.47;;;14.87;69.29
26978;BME280;56314;48.088;11.642;2023-05-02T10:43:29;95790.53;;;14.82;68.13
26978;BME280;56314;48.088;11.642;2023-05-02T10:45:55;95796.47;;;14.74;66.33
26978;BME280;56314;48.088;11.642;2023-05-02T10:48:22;95794.50;;;14.67;67.25
26978;BME280;56314;48.088;11.642;2023-05-02T10:53:25;95787.50;;;14.56;66.78
26978;BME280;56314;48.088;11.642;2023-05-02T10:56:19;95783.75;;;14.58;67.49
26978;BME280;56314;48.088;11.642;2023-05-02T10:58:50;95777.28;;;14.41;66.00
26978;BME280;56314;48.088;11.642;2023-05-02T11:03:55;95782.06;;;14.47;68.13
26978;BME280;56314;48.088;11.642;2023-05-02T11:06:21;95779.41;;;14.57;68.40
26978;BME280;56314;48.088;11.642;2023-05-02T11:08:47;95787.56;;;14.75;66.67
26978;BME280;56314;48.088;11.642;2023-05-02T11:11:40;95773.31;;;14.98;63.25
26978;BME280;56314;48.088;11.642;2023-05-02T11:14:07;95782.66;;;15.21;65.00
26978;BME280;56314;48.088;11.642;2023-05-02T11:19:27;95777.81;;;15.46;62.31
26978;BME280;56314;48.088;11.642;2023-05-02T11:24:45;95776.69;;;15.39;64.34
26978;BME280;56314;48.088;11.642;2023-05-02T11:30:06;95804.41;;;14.74;58.87
26978;BME280;56314;48.088;11.642;2023-05-02T11:35:23;95818.03;;;13.96;63.58
26978;BME280;56314;48.088;11.642;2023-05-02T11:38:01;95827.09;;;13.61;67.68
26978;BME280;56314;48.088;11.642;2023-05-02T11:40:27;95828.13;;;13.37;72.88
26978;BME280;56314;48.088;11.642;2023-05-02T11:42:54;95838.41;;;12.97;78.96
26978;BME280;56314;48.088;11.642;2023-05-02T11:45:19;95839.03;;;12.43;86.19
26978;BME280;56314;48.088;11.642;2023-05-02T11:47:50;95846.00;;;11.97;90.57
26978;BME280;56314;48.088;11.642;2023-05-02T11:50:16;95848.53;;;11.63;93.70
26978;BME280;56314;48.088;11.642;2023-05-02T11:52:44;95847.97;;;11.35;94.96
26978;BME280;56314;48.088;11.642;2023-05-02T11:55:12;95852.13;;;11.14;94.18
26978;BME280;56314;48.088;11.642;2023-05-02T11:57:38;95852.75;;;11.17;98.65
26978;BME280;56314;48.088;11.642;2023-05-02T12:00:04;95850.22;;;11.16;100.00
26978;BME280;56314;48.088;11.642;2023-05-02T12:02:43;95849.63;;;11.12;100.00
26978;BME280;56314;48.088;11.642;2023-05-02T12:05:10;95848.53;;;11.15;98.87
26978;BME280;56314;48.088;11.642;2023-05-02T12:07:46;95839.88;;;11.26;100.00
26978;BME280;56314;48.088;11.642;2023-05-02T12:10:13;95839.03;;;11.25;100.00
26978;BME280;56314;48.088;11.642;2023-05-02T12:12:42;95836.50;;;11.36;100.00
26978;BME280;56314;48.088;11.642;2023-05-02T12:15:09;95835.03;;;11.32;100.00
26978;BME280;56314;48.088;11.642;2023-05-02T12:17:40;95837.13;;;11.27;100.00
26978;BME280;56314;48.088;11.642;2023-05-02T12:20:08;95830.50;;;11.34;100.00
26978;BME280;56314;48.088;11.642;2023-05-02T12:22:33;95829.44;;;11.37;100.00
26978;BME280;56314;48.088;11.642;2023-05-02T12:24:59;95832.88;;;11.37;100.00
26978;BME280;56314;48.088;11.642;2023-05-02T12:27:25;95829.94;;;11.42;100.00
26978;BME280;56314;48.088;11.642;2023-05-02T12:29:52;95822.09;;;11.53;100.00
26978;BME280;56314;48.088;11.642;2023-05-02T12:32:34;95831.94;;;11.63;98.96
26978;BME280;56314;48.088;11.642;2023-05-02T12:35:01;95835.28;;;11.65;96.31
26978;BME280;56314;48.088;11.642;2023-05-02T12:37:27;95836.50;;;11.72;96.62
26978;BME280;56314;48.088;11.642;2023-05-02T12:39:53;95835.41;;;11.75;95.26
26978;BME280;56314;48.088;11.642;2023-05-02T12:42:24;95846.34;;;11.93;98.65
26978;BME280;56314;48.088;11.642;2023-05-02T12:44:50;95846.06;;;12.09;99.11
26978;BME280;56314;48.088;11.642;2023-05-02T12:47:20;95851.25;;;12.22;96.21
26978;BME280;56314;48.088;11.642;2023-05-02T12:49:51;95846.47;;;12.50;98.79
26978;BME280;56314;48.088;11.642;2023-05-02T12:52:18;95856.53;;;12.67;93.41
26978;BME280;56314;48.088;11.642;2023-05-02T12:54:44;95850.28;;;12.91;91.60
26978;BME280;56314;48.088;11.642;2023-05-02T12:57:09;95857.22;;;13.03;86.37
26978;BME280;56314;48.088;11.642;2023-05-02T12:59:45;95853.25;;;13.09;84.07
26978;BME280;56314;48.088;11.642;2023-05-02T13:02:10;95854.28;;;13.29;83.31
26978;BME280;56314;48.088;11.642;2023-05-02T13:04:37;95853.66;;;13.37;82.21
26978;BME280;56314;48.088;11.642;2023-05-02T13:07:03;95841.09;;;13.29;78.24
26978;BME280;56314;48.088;11.642;2023-05-02T13:09:29;95854.06;;;13.32;83.46
26978;BME280;56314;48.088;11.642;2023-05-02T13:11:54;95845.19;;;13.33;79.89
26978;BME280;56314;48.088;11.642;2023-05-02T13:14:21;95851.44;;;13.21;75.41
26978;BME280;56314;48.088;11.642;2023-05-02T13:16:48;95848.66;;;13.22;78.04
26978;BME280;56314;48.088;11.642;2023-05-02T13:19:13;95840.72;;;13.34;79.88
26978;BME280;56314;48.088;11.642;2023-05-02T13:21:39;95837.25;;;13.33;77.87
26978;BME280;56314;48.088;11.642;2023-05-02T13:24:05;95835.59;;;13.32;75.61
26978;BME280;56314;48.088;11.642;2023-05-02T13:26:30;95844.03;;;13.59;78.31
26978;BME280;56314;48.088;11.642;2023-05-02T13:28:56;95847.78;;;13.56;72.80
26978;BME280;56314;48.088;11.642;2023-05-02T13:31:21;95839.66;;;13.69;72.44